Time;durP1;ratioP1;P1;durP2;ratioP2;P2;SDS_P1;SDS_P2;PMS_P1;PMS_P2;Temp;Humidity;BMP_temperature;BMP_pressure;BME280_temperature;BME280_humidity;BME280_pressure;Samples;Min_cycle;Max_cycle;Signal;HPM_P1;HPM_P2
2023/10/09 00:01:05;;;;;;;16.48;7.05;;;13.10;80.70;;;;;;5019964;28;20068;-66
2023/10/09 00:03:31;;;;;;;13.52;7.43;;;13.10;80.80;;;;;;5030159;28;20053;-66
2023/10/09 00:05:57;;;;;;;16.38;7.70;;;13.10;80.90;;;;;;5012026;28;20076;-66
2023/10/09 00:08:32;;;;;;;12.52;6.85;;;13.10;80.90;;;;;;5024163;28;20128;-65
2023/10/09 00:11:13;;;;;;;16.60;7.90;;;13.10;81.10;;;;;;5030310;28;20076;-66
2023/10/09 00:13:48;;;;;;;14.30;7.82;;;13.10;81.10;;;;;;5025494;28;20504;-66
2023/10/09 00:16:23;;;;;;;18.02;7.93;;;13.10;81.20;;;;;;5011350;28;20104;-66
2023/10/09 00:18:50;;;;;;;15.05;7.00;;;13.10;81.10;;;;;;5019328;28;20038;-66
2023/10/09 00:21:23;;;;;;;15.73;7.97;;;13.10;81.20;;;;;;5030321;28;20088;-66
2023/10/09 00:23:59;;;;;;;19.48;8.27;;;13.10;81.20;;;;;;5022595;28;20046;-69
2023/10/09 00:26:25;;;;;;;12.07;7.70;;;13.10;81.30;;;;;;5011400;28;20133;-66
2023/10/09 00:28:51;;;;;;;19.20;8.70;;;13.10;81.40;;;;;;4998333;28;20042;-66
2023/10/09 00:31:26;;;;;;;22.23;9.05;;;13.10;81.40;;;;;;5030544;28;20048;-66
2023/10/09 00:33:52;;;;;;;17.30;9.20;;;13.10;81.50;;;;;;5018438;28;20046;-66
2023/10/09 00:36:27;;;;;;;20.17;9.18;;;13.10;81.40;;;;;;5029188;28;20037;-66
2023/10/09 00:38:54;;;;;;;18.92;9.30;;;13.10;81.30;;;;;;5031122;28;20506;-65
2023/10/09 00:41:21;;;;;;;20.92;9.82;;;13.10;81.40;;;;;;5018303;28;20404;-67
2023/10/09 00:43:49;;;;;;;19.65;9.20;;;13.10;81.50;;;;;;5036032;28;20056;-67
2023/10/09 00:48:48;;;;;;;22.02;9.35;;;13.10;81.50;;;;;;5010835;28;20070;-66
2023/10/09 00:51:16;;;;;;;22.58;11.20;;;13.10;81.50;;;;;;5010848;28;20084;-66
2023/10/09 00:53:51;;;;;;;21.98;11.02;;;13.10;81.50;;;;;;5012674;28;20053;-66
2023/10/09 00:59:00;;;;;;;26.80;11.95;;;13.10;81.60;;;;;;5026185;28;20049;-66
2023/10/09 01:01:34;;;;;;;31.77;12.15;;;13.10;81.70;;;;;;5019982;28;20057;-66
2023/10/09 01:04:22;;;;;;;26.65;12.25;;;13.10;81.70;;;;;;4999808;28;20683;-65
2023/10/09 01:07:04;;;;;;;26.65;12.38;;;13.10;81.80;;;;;;5043734;28;20061;-67
2023/10/09 01:09:36;;;;;;;30.92;14.27;;;13.20;81.90;;;;;;5023858;28;20061;-66
2023/10/09 01:14:27;;;;;;;31.60;13.73;;;13.20;81.90;;;;;;5010090;28;20057;-66
2023/10/09 01:16:54;;;;;;;33.53;15.38;;;13.30;82.00;;;;;;5010062;28;20054;-67
2023/10/09 01:19:30;;;;;;;33.17;15.35;;;13.20;82.00;;;;;;5005653;28;20123;-66
2023/10/09 01:22:04;;;;;;;36.63;16.73;;;13.20;82.00;;;;;;5022304;28;20045;-66
2023/10/09 01:24:35;;;;;;;34.35;16.95;;;13.30;82.20;;;;;;5023254;28;20407;-66
2023/10/09 01:27:04;;;;;;;36.85;16.63;;;13.30;82.20;;;;;;5020006;28;20123;-66
2023/10/09 01:29:30;;;;;;;43.72;17.17;;;13.30;82.30;;;;;;5006000;28;20124;-66
2023/10/09 01:32:00;;;;;;;43.65;18.67;;;13.30;82.30;;;;;;5030057;28;20433;-67
2023/10/09 01:34:44;;;;;;;41.45;19.38;;;13.30;82.40;;;;;;4995643;28;20037;-66
2023/10/09 01:37:22;;;;;;;40.53;18.85;;;13.30;82.50;;;;;;5023466;28;20115;-66
2023/10/09 01:39:50;;;;;;;47.88;20.90;;;13.30;82.50;;;;;;5029861;28;20435;-67
2023/10/09 01:47:56;;;;;;;47.33;21.70;;;13.30;82.80;;;;;;5009733;28;20081;-66
2023/10/09 01:50:27;;;;;;;45.70;22.45;;;13.30;82.90;;;;;;5027707;28;20235;-66
2023/10/09 01:52:52;;;;;;;51.38;22.88;;;13.30;83.00;;;;;;5020262;28;20045;-64
2023/10/09 01:55:28;;;;;;;52.17;24.05;;;13.30;83.00;;;;;;5015561;28;20056;-66
2023/10/09 01:57:57;;;;;;;47.40;23.58;;;13.20;83.10;;;;;;5029471;28;20046;-66
2023/10/09 02:00:28;;;;;;;48.58;23.27;;;13.30;83.20;;;;;;5029741;28;20049;-66
2023/10/09 02:02:54;;;;;;;52.15;24.95;;;13.20;83.30;;;;;;5029530;28;20052;-66
2023/10/09 02:07:58;;;;;;;54.88;25.35;;;13.20;83.40;;;;;;5031640;28;20057;-67
2023/10/09 02:12:54;;;;;;;56.03;25.85;;;13.20;83.60;;;;;;5020264;28;20054;-67
2023/10/09 02:15:40;;;;;;;51.38;25.80;;;13.20;83.70;;;;;;5014162;28;20054;-67
2023/10/09 02:18:16;;;;;;;61.22;27.25;;;13.20;83.70;;;;;;5028564;28;20053;-66
2023/10/09 02:20:46;;;;;;;56.17;27.13;;;13.20;83.80;;;;;;5033456;28;20053;-66
2023/10/09 02:23:13;;;;;;;54.90;26.73;;;13.20;83.80;;;;;;5029167;28;20072;-66
2023/10/09 02:25:43;;;;;;;65.25;28.42;;;13.20;83.90;;;;;;5013528;28;20096;-66
2023/10/09 02:28:19;;;;;;;65.97;28.20;;;13.20;83.90;;;;;;5018089;28;20346;-66
2023/10/09 02:30:48;;;;;;;75.15;30.63;;;13.20;84.00;;;;;;5033010;28;20140;-66
2023/10/09 02:33:30;;;;;;;72.57;30.20;;;13.20;84.10;;;;;;5027533;28;20056;-66
2023/10/09 02:36:02;;;;;;;70.50;30.85;;;13.20;84.10;;;;;;5034577;28;20081;-66
2023/10/09 02:38:27;;;;;;;;;;;13.20;84.30;;;;;;5013263;28;20049;-66
2023/10/09 02:43:44;;;;;;;74.97;35.10;;;13.10;84.80;;;;;;5033237;28;20049;-66
2023/10/09 02:46:39;;;;;;;80.13;35.50;;;13.20;84.60;;;;;;5032863;28;20052;-66
2023/10/09 02:49:09;;;;;;;91.70;37.78;;;13.20;84.60;;;;;;5032661;28;20053;-66
2023/10/09 02:51:41;;;;;;;85.70;37.67;;;13.20;84.80;;;;;;5032619;28;20092;-67
2023/10/09 02:54:17;;;;;;;92.65;37.88;;;13.20;84.90;;;;;;5012980;28;20046;-66
2023/10/09 02:56:47;;;;;;;99.57;40.33;;;13.30;85.00;;;;;;5024599;28;20041;-67
2023/10/09 02:59:13;;;;;;;95.70;40.53;;;13.20;85.10;;;;;;5028266;28;20116;-66
2023/10/09 03:01:40;;;;;;;95.13;42.53;;;13.30;85.20;;;;;;5013004;28;20553;-66
2023/10/09 03:04:14;;;;;;;99.25;42.58;;;13.30;85.10;;;;;;5018774;28;20195;-67
2023/10/09 03:06:48;;;;;;;96.78;43.85;;;13.30;85.30;;;;;;5018385;28;20054;-66
2023/10/09 03:09:17;;;;;;;101.75;44.75;;;13.30;85.60;;;;;;5023297;28;20049;-67
2023/10/09 03:11:53;;;;;;;102.32;47.20;;;13.40;85.70;;;;;;5014256;28;20505;-67
2023/10/09 03:14:26;;;;;;;99.63;45.28;;;13.50;85.90;;;;;;5012580;28;20054;-66
2023/10/09 03:16:52;;;;;;;108.88;49.35;;;13.50;85.90;;;;;;5012720;28;20457;-67
2023/10/09 03:19:18;;;;;;;91.38;46.05;;;13.60;86.50;;;;;;5012462;28;20042;-66
2023/10/09 03:21:43;;;;;;;88.57;44.95;;;13.60;86.50;;;;;;5012053;28;20050;-66
2023/10/09 03:24:11;;;;;;;89.25;44.90;;;13.80;87.10;;;;;;5024867;28;20053;-65
2023/10/09 03:26:37;;;;;;;89.68;44.78;;;13.90;86.90;;;;;;5031800;28;20050;-67
2023/10/09 03:29:10;;;;;;;87.57;44.92;;;14.00;86.70;;;;;;5025774;28;20060;-67
2023/10/09 03:31:36;;;;;;;64.82;38.30;;;14.10;86.60;;;;;;5041549;28;20056;-66
2023/10/09 03:34:02;;;;;;;70.10;39.08;;;14.20;86.80;;;;;;5031875;28;20057;-67
2023/10/09 03:36:30;;;;;;;69.20;38.30;;;14.40;87.10;;;;;;5032082;28;20045;-68
2023/10/09 03:38:57;;;;;;;67.68;36.88;;;14.60;86.90;;;;;;5013800;28;20046;-67
2023/10/09 03:41:26;;;;;;;58.13;35.75;;;14.70;86.50;;;;;;5022504;28;20052;-67
2023/10/09 03:43:54;;;;;;;62.72;36.00;;;14.80;86.20;;;;;;5031649;28;20081;-67
2023/10/09 03:46:22;;;;;;;65.00;34.53;;;14.90;85.90;;;;;;5022741;28;20456;-68
2023/10/09 03:48:56;;;;;;;60.10;34.42;;;14.90;85.60;;;;;;5011762;28;20072;-68
2023/10/09 03:51:23;;;;;;;58.35;33.40;;;15.00;85.40;;;;;;5012163;28;20081;-68
2023/10/09 03:53:50;;;;;;;55.33;32.72;;;15.00;85.30;;;;;;4998190;28;20045;-67
2023/10/09 03:56:17;;;;;;;55.20;31.88;;;15.00;85.20;;;;;;5030907;28;20045;-67
2023/10/09 03:58:49;;;;;;;58.60;31.08;;;15.00;85.20;;;;;;5031761;28;20052;-67
2023/10/09 04:01:29;;;;;;;51.47;30.15;;;15.10;85.00;;;;;;5005080;28;20416;-67
2023/10/09 04:03:59;;;;;;;58.95;33.30;;;15.10;85.10;;;;;;5031638;28;20129;-67
2023/10/09 04:06:30;;;;;;;53.45;32.65;;;15.10;85.10;;;;;;5031155;28;20443;-66
2023/10/09 04:08:58;;;;;;;56.13;31.17;;;15.10;84.90;;;;;;5025640;28;20436;-67
2023/10/09 04:11:26;;;;;;;55.90;31.10;;;15.10;85.00;;;;;;5023846;28;20045;-67
2023/10/09 04:13:53;;;;;;;57.50;32.22;;;15.10;85.00;;;;;;5018979;28;20052;-67
2023/10/09 04:18:57;;;;;;;56.22;31.00;;;15.10;85.10;;;;;;5022244;28;20088;-67
2023/10/09 04:21:36;;;;;;;54.28;31.50;;;15.10;85.10;;;;;;5024449;28;20559;-68
2023/10/09 04:26:37;;;;;;;54.53;30.77;;;15.10;85.20;;;;;;5022877;28;20129;-67
2023/10/09 04:29:03;;;;;;;56.72;30.65;;;15.10;85.10;;;;;;5024476;28;20124;-67
2023/10/09 04:31:34;;;;;;;53.30;29.48;;;15.10;85.20;;;;;;5030346;28;20060;-67
2023/10/09 04:37:00;;;;;;;51.92;29.52;;;15.00;85.30;;;;;;5021722;28;20136;-67
2023/10/09 04:44:59;;;;;;;51.47;27.45;;;15.10;85.70;;;;;;5018328;28;20164;-67
2023/10/09 04:47:38;;;;;;;48.58;25.33;;;15.20;85.50;;;;;;5040639;28;20049;-67
2023/10/09 04:50:36;;;;;;;44.03;25.25;;;15.20;85.50;;;;;;5030141;28;20053;-67
2023/10/09 04:55:57;;;;;;;45.00;24.70;;;15.20;85.50;;;;;;5029906;28;20088;-67
2023/10/09 04:58:26;;;;;;;43.70;24.23;;;15.20;85.50;;;;;;5023281;28;20119;-67
2023/10/09 05:03:42;;;;;;;43.63;22.58;;;15.20;85.50;;;;;;5011924;28;20060;-68
2023/10/09 05:06:21;;;;;;;40.15;21.05;;;15.30;85.50;;;;;;5017623;28;20045;-66
2023/10/09 05:08:54;;;;;;;38.63;21.38;;;15.30;85.60;;;;;;5022678;28;20396;-68
2023/10/09 05:11:36;;;;;;;39.20;20.77;;;15.30;85.60;;;;;;5021024;28;20049;-67
2023/10/09 05:14:14;;;;;;;37.33;20.63;;;15.30;85.60;;;;;;5015971;28;20573;-65
2023/10/09 05:16:55;;;;;;;36.75;20.30;;;15.30;85.60;;;;;;5032513;28;20156;-68
2023/10/09 05:22:16;;;;;;;40.67;19.33;;;15.40;85.70;;;;;;5029943;28;20445;-66
2023/10/09 05:24:47;;;;;;;39.05;20.08;;;15.40;85.70;;;;;;5029382;28;20107;-67
2023/10/09 05:27:18;;;;;;;33.78;17.83;;;15.40;85.70;;;;;;5026418;28;20057;-67
2023/10/09 05:30:12;;;;;;;33.95;18.50;;;15.40;85.70;;;;;;5029068;28;20412;-68
2023/10/09 05:32:48;;;;;;;37.45;17.42;;;15.40;85.70;;;;;;5027346;28;20053;-68
2023/10/09 05:35:19;;;;;;;31.63;17.40;;;15.40;85.70;;;;;;5020497;28;20092;-68
2023/10/09 05:37:45;;;;;;;34.20;17.95;;;15.40;85.70;;;;;;5029688;28;20050;-67
2023/10/09 05:42:42;;;;;;;34.63;17.52;;;15.40;85.90;;;;;;5028951;28;20045;-66
2023/10/09 06:04:33;;;;;;;32.78;14.00;;;15.40;86.20;;;;;;5029348;28;20618;-67
2023/10/09 06:07:00;;;;;;;33.25;14.52;;;15.40;86.30;;;;;;5029492;28;20068;-68
2023/10/09 06:09:49;;;;;;;29.50;13.45;;;15.40;86.30;;;;;;5028593;28;20100;-68
2023/10/09 06:12:33;;;;;;;34.83;13.02;;;15.40;86.30;;;;;;5022031;28;20054;-68
2023/10/09 06:15:19;;;;;;;33.35;13.38;;;15.40;86.20;;;;;;5022785;28;20046;-68
2023/10/09 06:17:50;;;;;;;30.23;13.05;;;15.40;86.30;;;;;;5009227;28;20058;-68
2023/10/09 06:23:15;;;;;;;28.83;13.10;;;15.40;86.40;;;;;;5029161;28;20595;-67
2023/10/09 06:26:23;;;;;;;26.47;12.93;;;15.40;86.30;;;;;;5029175;28;20080;-68
2023/10/09 06:28:35;;;;;;;26.48;13.48;;;15.50;86.40;;;;;;5028596;28;20735;-67
2023/10/09 06:31:46;;;;;;;32.15;13.55;;;15.40;86.30;;;;;;5029668;28;20412;-68
2023/10/09 06:34:15;;;;;;;33.75;13.02;;;15.40;86.40;;;;;;5028163;28;20427;-67
2023/10/09 06:36:52;;;;;;;29.90;13.07;;;15.50;86.50;;;;;;5026382;28;20128;-68
2023/10/09 06:42:30;;;;;;;30.10;13.05;;;15.40;86.50;;;;;;5028098;28;20185;-67
2023/10/09 06:44:52;;;;;;;27.67;13.05;;;15.40;86.50;;;;;;5024924;28;20127;-66
2023/10/09 06:47:18;;;;;;;28.60;12.80;;;15.50;86.40;;;;;;5009474;28;20140;-68
2023/10/09 06:50:12;;;;;;;24.90;12.30;;;15.50;86.50;;;;;;5028167;28;20120;-68
2023/10/09 06:52:57;;;;;;;30.98;12.95;;;15.50;86.50;;;;;;5010230;28;20507;-69
2023/10/09 06:55:19;;;;;;;30.27;12.85;;;15.40;86.60;;;;;;5030264;28;20570;-68
2023/10/09 06:57:48;;;;;;;33.92;13.55;;;15.40;86.70;;;;;;5014343;28;20079;-67
2023/10/09 07:00:54;;;;;;;31.42;14.00;;;15.40;86.60;;;;;;5028162;28;20068;-68
2023/10/09 07:03:11;;;;;;;34.38;13.65;;;15.40;86.60;;;;;;5029865;28;20065;-68
2023/10/09 07:08:38;;;;;;;34.13;13.38;;;15.40;86.60;;;;;;5011726;28;20424;-65
2023/10/09 07:13:55;;;;;;;29.80;13.48;;;15.40;86.70;;;;;;5015902;28;20065;-67
2023/10/09 07:16:28;;;;;;;30.83;13.48;;;15.40;86.70;;;;;;5010464;28;20057;-64
2023/10/09 07:19:09;;;;;;;34.13;14.07;;;15.40;86.80;;;;;;5002931;28;20099;-63
2023/10/09 07:21:36;;;;;;;34.67;13.38;;;15.40;86.80;;;;;;5015652;28;21009;-68
2023/10/09 07:24:14;;;;;;;31.20;12.18;;;15.40;86.90;;;;;;5014593;28;20042;-66
2023/10/09 07:26:52;;;;;;;29.98;13.32;;;15.40;86.80;;;;;;5014297;28;20049;-68
2023/10/09 07:29:23;;;;;;;31.45;13.23;;;15.40;86.90;;;;;;5015281;28;20049;-62
2023/10/09 07:31:57;;;;;;;35.92;12.93;;;15.40;87.00;;;;;;5014725;28;20132;-68
2023/10/09 07:34:52;;;;;;;35.75;12.77;;;15.50;87.00;;;;;;5016120;28;20050;-68
2023/10/09 07:37:30;;;;;;;29.42;11.95;;;15.40;87.00;;;;;;5012359;28;20049;-67
2023/10/09 07:39:57;;;;;;;33.03;13.13;;;15.50;87.10;;;;;;5013694;28;20048;-69
2023/10/09 07:42:43;;;;;;;28.20;12.85;;;15.50;87.10;;;;;;5015165;28;20053;-65
2023/10/09 07:50:37;;;;;;;34.88;14.15;;;15.50;87.20;;;;;;5015211;28;20067;-66
2023/10/09 07:56:08;;;;;;;32.72;13.48;;;15.40;87.20;;;;;;4971282;28;20054;-66
2023/10/09 07:58:45;;;;;;;33.20;13.10;;;15.50;87.20;;;;;;5006290;28;20088;-68
2023/10/09 08:01:34;;;;;;;33.65;13.57;;;15.40;87.30;;;;;;5014113;28;20073;-64
2023/10/09 08:04:14;;;;;;;32.70;13.45;;;15.50;87.30;;;;;;5014708;28;21102;-64
2023/10/09 08:06:44;;;;;;;37.28;14.23;;;15.50;87.50;;;;;;5014987;28;20411;-69
2023/10/09 08:19:53;;;;;;;32.00;13.43;;;15.50;87.50;;;;;;5014307;28;20056;-68
2023/10/09 08:24:58;;;;;;;31.65;13.43;;;15.50;87.70;;;;;;5015173;28;21117;-65
2023/10/09 08:30:13;;;;;;;41.67;14.00;;;15.50;87.50;;;;;;5014326;28;20578;-66
2023/10/09 08:32:42;;;;;;;38.40;13.85;;;15.50;87.60;;;;;;5014386;28;20080;-66
2023/10/09 08:35:29;;;;;;;29.50;12.93;;;15.50;87.70;;;;;;5014667;28;20057;-64
2023/10/09 08:37:59;;;;;;;35.20;13.65;;;15.60;87.80;;;;;;5014454;28;20049;-71
2023/10/09 08:40:46;;;;;;;36.67;14.45;;;15.60;88.00;;;;;;5014433;28;20397;-67
2023/10/09 08:43:36;;;;;;;41.42;14.23;;;15.60;87.90;;;;;;5014394;28;20057;-65
2023/10/09 08:46:04;;;;;;;31.33;13.55;;;15.60;88.00;;;;;;5015136;28;20106;-65
2023/10/09 08:48:30;;;;;;;40.38;13.23;;;15.60;88.10;;;;;;5014288;28;20084;-68
2023/10/09 08:50:56;;;;;;;33.13;13.52;;;15.60;88.10;;;;;;5014904;28;20053;-67
2023/10/09 08:53:24;;;;;;;41.35;14.02;;;15.60;88.20;;;;;;5013848;28;20060;-66
2023/10/09 08:55:51;;;;;;;37.88;14.57;;;15.60;88.10;;;;;;5014796;28;20983;-70
2023/10/09 08:58:24;;;;;;;36.28;14.27;;;15.60;88.20;;;;;;5012980;28;20776;-68
2023/10/09 09:00:51;;;;;;;31.33;13.68;;;15.60;88.20;;;;;;5011274;28;20135;-70
2023/10/09 09:03:19;;;;;;;35.45;13.32;;;15.60;88.30;;;;;;5011972;28;20116;-71
2023/10/09 09:05:49;;;;;;;29.73;13.73;;;15.60;88.30;;;;;;5011232;28;20049;-67
2023/10/09 09:08:26;;;;;;;31.27;13.73;;;15.70;88.20;;;;;;4994364;28;20654;-64
2023/10/09 09:11:24;;;;;;;31.55;12.60;;;15.80;88.40;;;;;;5013665;28;20704;-65
2023/10/09 09:14:02;;;;;;;30.90;12.15;;;15.80;88.40;;;;;;5014037;28;20087;-63
2023/10/09 09:16:33;;;;;;;32.75;14.05;;;15.80;88.50;;;;;;4995772;28;20132;-66
2023/10/09 09:21:40;;;;;;;34.05;13.27;;;15.80;88.40;;;;;;5013242;28;20103;-68
2023/10/09 09:26:47;;;;;;;28.35;13.68;;;15.80;88.50;;;;;;5013235;28;20057;-71
2023/10/09 09:29:17;;;;;;;32.85;12.98;;;15.80;88.50;;;;;;5013622;28;20591;-66
2023/10/09 09:32:06;;;;;;;26.90;12.03;;;15.80;88.50;;;;;;5014225;28;20096;-63
2023/10/09 09:34:46;;;;;;;31.85;13.27;;;15.80;88.60;;;;;;5013652;28;20115;-65
2023/10/09 09:37:19;;;;;;;28.25;12.93;;;15.90;88.60;;;;;;5014191;28;20057;-71
2023/10/09 09:39:51;;;;;;;27.45;12.63;;;15.90;88.60;;;;;;4995373;28;21605;-70
2023/10/09 09:42:24;;;;;;;28.77;11.27;;;15.90;88.60;;;;;;4995896;28;20056;-70
2023/10/09 09:44:51;;;;;;;31.80;11.68;;;16.00;88.60;;;;;;5013719;28;20057;-68
2023/10/09 09:47:26;;;;;;;27.70;12.32;;;16.00;88.70;;;;;;5013612;28;20665;-67
2023/10/09 09:49:59;;;;;;;23.20;9.77;;;16.00;88.60;;;;;;5013399;28;20056;-67
2023/10/09 09:52:28;;;;;;;28.33;10.57;;;16.00;88.60;;;;;;5013539;28;20063;-66
2023/10/09 09:54:53;;;;;;;25.05;10.32;;;16.00;88.50;;;;;;5012927;28;20084;-68
2023/10/09 09:57:26;;;;;;;27.38;10.32;;;16.00;88.50;;;;;;4996755;28;20497;-64
2023/10/09 09:59:55;;;;;;;23.50;10.57;;;16.00;88.50;;;;;;5012873;28;20080;-67
2023/10/09 10:02:37;;;;;;;27.30;9.68;;;16.00;88.40;;;;;;4995588;28;20065;-68
2023/10/09 10:05:06;;;;;;;26.73;9.60;;;16.00;88.30;;;;;;5013010;28;20545;-64
2023/10/09 10:07:42;;;;;;;23.92;9.07;;;16.00;88.30;;;;;;4995940;28;20053;-62
2023/10/09 10:10:33;;;;;;;23.02;9.13;;;16.00;88.20;;;;;;5012606;28;20049;-61
2023/10/09 10:13:02;;;;;;;24.50;9.63;;;16.10;88.20;;;;;;5012275;28;20057;-63
2023/10/09 10:16:20;;;;;;;29.75;10.30;;;16.10;88.10;;;;;;5012707;28;20475;-67
2023/10/09 10:21:48;;;;;;;28.77;9.10;;;16.10;88.00;;;;;;5012496;28;20080;-66
2023/10/09 10:24:29;;;;;;;28.65;9.50;;;16.10;88.00;;;;;;5013366;28;20291;-67
2023/10/09 10:27:10;;;;;;;28.60;10.55;;;16.10;88.00;;;;;;4995380;28;20056;-69
2023/10/09 10:29:38;;;;;;;28.05;10.32;;;16.10;87.90;;;;;;5014739;28;20187;-65
2023/10/09 10:32:08;;;;;;;25.48;9.27;;;16.10;87.90;;;;;;5016716;28;20486;-65
2023/10/09 10:34:58;;;;;;;27.10;10.18;;;16.20;87.90;;;;;;5017536;28;20608;-66
2023/10/09 10:37:51;;;;;;;27.70;10.07;;;16.20;87.80;;;;;;5016661;28;20081;-69
2023/10/09 10:40:40;;;;;;;31.80;9.85;;;16.20;87.80;;;;;;5015822;28;20045;-66
2023/10/09 10:43:13;;;;;;;32.05;9.77;;;16.20;87.60;;;;;;5016348;28;20564;-66
2023/10/09 10:45:45;;;;;;;27.55;9.93;;;16.20;87.50;;;;;;5015997;28;20049;-67
2023/10/09 10:51:01;;;;;;;28.83;9.68;;;16.20;87.50;;;;;;4978945;28;20049;-65
2023/10/09 10:53:34;;;;;;;37.78;10.07;;;16.20;87.50;;;;;;5015426;28;20051;-69
2023/10/09 10:58:53;;;;;;;30.77;9.50;;;16.20;87.50;;;;;;5015308;28;20052;-68
2023/10/09 11:01:24;;;;;;;34.25;9.35;;;16.20;87.40;;;;;;5014346;28;20374;-64
2023/10/09 11:03:56;;;;;;;32.63;9.35;;;16.20;87.30;;;;;;5015155;28;20500;-68
2023/10/09 11:06:38;;;;;;;30.85;8.77;;;16.20;87.30;;;;;;5015570;28;20123;-61
2023/10/09 11:09:09;;;;;;;26.60;8.68;;;16.20;87.10;;;;;;4996362;28;20057;-67
2023/10/09 11:11:46;;;;;;;24.00;7.85;;;16.20;86.90;;;;;;5013670;28;20458;-66
2023/10/09 11:14:44;;;;;;;24.85;8.00;;;16.20;86.70;;;;;;5015292;28;20056;-62
2023/10/09 11:17:03;;;;;;;31.40;8.35;;;16.10;86.80;;;;;;5014646;28;20041;-67
2023/10/09 11:19:31;;;;;;;25.55;7.88;;;16.10;86.90;;;;;;5015288;28;20065;-64
2023/10/09 11:21:58;;;;;;;27.95;8.15;;;16.00;86.80;;;;;;5014652;28;20050;-64
2023/10/09 11:24:34;;;;;;;27.20;7.50;;;16.00;86.80;;;;;;5015375;28;20054;-67
2023/10/09 11:27:07;;;;;;;28.27;7.70;;;16.00;86.90;;;;;;5012729;28;20515;-66
2023/10/09 11:32:18;;;;;;;25.02;7.75;;;16.00;87.20;;;;;;5014463;28;20057;-66
2023/10/09 11:34:54;;;;;;;21.65;7.45;;;16.00;87.20;;;;;;5014843;28;20053;-64
2023/10/09 11:39:57;;;;;;;20.10;7.03;;;16.00;87.40;;;;;;5013905;28;20106;-66
2023/10/09 11:45:21;;;;;;;21.95;6.60;;;16.00;87.50;;;;;;5012638;28;20128;-66
2023/10/09 11:47:59;;;;;;;24.77;7.50;;;16.00;87.40;;;;;;5013122;28;20073;-63
2023/10/09 11:50:43;;;;;;;19.92;6.22;;;16.00;87.50;;;;;;5013390;28;20059;-65
2023/10/09 11:53:19;;;;;;;24.45;6.57;;;16.10;87.30;;;;;;5014197;28;20527;-67
2023/10/09 11:55:49;;;;;;;14.80;5.65;;;16.10;87.20;;;;;;5012856;28;20053;-67
2023/10/09 11:58:24;;;;;;;20.33;5.78;;;16.10;87.10;;;;;;5015231;28;20053;-68
2023/10/09 12:00:59;;;;;;;19.05;6.03;;;16.10;86.70;;;;;;5013658;28;20144;-67
2023/10/09 12:03:29;;;;;;;18.55;5.53;;;16.10;86.80;;;;;;5014461;28;20050;-66
2023/10/09 12:06:05;;;;;;;16.25;5.13;;;16.10;86.70;;;;;;5014197;28;21345;-67
2023/10/09 12:08:34;;;;;;;19.00;5.50;;;16.10;86.60;;;;;;5013067;28;20085;-68
2023/10/09 12:11:03;;;;;;;14.07;5.30;;;16.10;86.60;;;;;;5013679;28;20561;-67
2023/10/09 12:13:28;;;;;;;18.50;5.57;;;16.20;86.60;;;;;;5014275;28;20112;-64
2023/10/09 12:15:54;;;;;;;17.65;5.65;;;16.10;86.50;;;;;;5012759;28;20103;-68
2023/10/09 12:18:21;;;;;;;18.80;5.40;;;16.10;86.00;;;;;;5013202;28;20512;-66
2023/10/09 12:20:51;;;;;;;12.52;5.10;;;16.10;85.90;;;;;;5014520;28;20130;-61
2023/10/09 12:23:21;;;;;;;12.50;5.63;;;16.10;86.10;;;;;;5012802;28;20064;-62
2023/10/09 12:25:51;;;;;;;18.05;5.45;;;16.20;86.20;;;;;;5013267;28;20512;-67
2023/10/09 12:28:20;;;;;;;17.90;5.50;;;16.10;85.90;;;;;;5012755;28;20099;-63
2023/10/09 12:30:52;;;;;;;15.38;6.40;;;16.10;85.80;;;;;;5012845;28;20049;-63
2023/10/09 12:33:19;;;;;;;17.10;5.75;;;16.10;86.00;;;;;;5013738;28;20091;-67
2023/10/09 12:35:45;;;;;;;16.17;5.80;;;16.20;86.10;;;;;;5013642;28;20057;-65
2023/10/09 12:38:13;;;;;;;18.00;5.90;;;16.20;85.80;;;;;;5013495;28;20077;-68
2023/10/09 12:40:41;;;;;;;18.90;4.72;;;16.20;85.30;;;;;;5012629;28;20080;-66
2023/10/09 12:43:15;;;;;;;18.30;5.53;;;16.20;85.40;;;;;;5009727;28;20518;-66
2023/10/09 12:45:42;;;;;;;14.45;5.18;;;16.20;85.50;;;;;;5010619;28;20183;-67
2023/10/09 12:48:09;;;;;;;15.70;5.68;;;16.20;85.50;;;;;;4992660;28;20068;-64
2023/10/09 12:50:41;;;;;;;15.55;5.40;;;16.30;85.60;;;;;;5010878;28;20629;-67
2023/10/09 12:53:08;;;;;;;13.43;5.18;;;16.20;85.20;;;;;;5010132;28;20057;-67
2023/10/09 12:55:41;;;;;;;11.80;5.28;;;16.30;85.00;;;;;;5010048;28;20886;-68
2023/10/09 12:58:08;;;;;;;15.65;5.25;;;16.30;85.20;;;;;;5011039;28;20099;-67
2023/10/09 13:00:39;;;;;;;18.10;5.35;;;16.30;85.10;;;;;;5011230;28;20053;-69
2023/10/09 13:03:32;;;;;;;16.40;5.47;;;16.40;85.20;;;;;;5009311;28;20058;-64
2023/10/09 13:05:56;;;;;;;15.57;4.90;;;16.40;85.20;;;;;;4992030;28;20080;-68
2023/10/09 13:08:34;;;;;;;14.80;4.63;;;16.40;85.10;;;;;;5009979;28;20188;-69
2023/10/09 13:11:10;;;;;;;14.20;4.70;;;16.40;84.60;;;;;;4992749;28;21124;-67
2023/10/09 13:13:41;;;;;;;17.02;4.72;;;16.40;84.40;;;;;;4992137;28;20131;-67
2023/10/09 13:16:11;;;;;;;18.08;4.70;;;16.40;84.60;;;;;;5010066;28;20084;-68
2023/10/09 13:18:37;;;;;;;12.10;4.45;;;16.40;84.40;;;;;;5010970;28;20041;-68
2023/10/09 13:21:03;;;;;;;15.00;4.53;;;16.40;84.20;;;;;;5011109;28;20050;-66
2023/10/09 13:23:39;;;;;;;11.75;4.18;;;16.50;84.30;;;;;;5010066;28;20123;-67
2023/10/09 13:26:17;;;;;;;14.50;4.50;;;16.50;84.10;;;;;;5009587;28;20041;-70
2023/10/09 13:28:47;;;;;;;13.25;4.63;;;16.50;84.20;;;;;;5008921;28;20053;-64
2023/10/09 13:31:17;;;;;;;13.27;4.18;;;16.40;83.70;;;;;;5010454;28;20056;-67
2023/10/09 13:33:43;;;;;;;14.13;4.50;;;16.40;82.90;;;;;;5011826;28;20044;-68
2023/10/09 13:36:26;;;;;;;20.40;5.28;;;16.40;83.20;;;;;;5011882;28;20069;-62
2023/10/09 13:38:56;;;;;;;12.73;4.68;;;16.40;83.30;;;;;;5010464;28;20065;-66
2023/10/09 13:41:28;;;;;;;16.67;4.57;;;16.40;83.60;;;;;;5010260;28;20070;-66
2023/10/09 13:43:54;;;;;;;14.23;4.68;;;16.40;83.60;;;;;;5009410;28;20092;-64
2023/10/09 13:46:20;;;;;;;19.13;4.65;;;16.40;83.60;;;;;;5009173;28;20171;-66
2023/10/09 13:48:49;;;;;;;13.40;4.47;;;16.40;83.30;;;;;;5008034;28;21455;-67
2023/10/09 13:51:17;;;;;;;17.35;4.53;;;16.40;83.50;;;;;;5011095;28;20065;-63
2023/10/09 13:53:47;;;;;;;15.65;4.60;;;16.40;83.50;;;;;;4993627;28;20063;-63
2023/10/09 13:56:21;;;;;;;13.50;4.25;;;16.40;83.50;;;;;;5011642;28;20059;-65
2023/10/09 13:58:50;;;;;;;16.33;3.95;;;16.40;83.60;;;;;;5011370;28;20475;-64
2023/10/09 14:01:32;;;;;;;19.20;4.25;;;16.40;83.40;;;;;;5008196;28;20560;-66
2023/10/09 14:03:59;;;;;;;10.63;3.55;;;16.30;83.40;;;;;;5010602;28;20061;-67
2023/10/09 14:06:33;;;;;;;14.50;3.97;;;16.20;83.30;;;;;;5010854;28;20523;-68
2023/10/09 14:09:09;;;;;;;15.93;4.03;;;16.20;83.30;;;;;;5009000;28;20108;-62
2023/10/09 14:11:37;;;;;;;12.45;3.75;;;16.10;83.10;;;;;;5007421;28;20440;-66
2023/10/09 14:14:09;;;;;;;12.38;4.05;;;16.10;83.20;;;;;;5011099;28;20045;-67
2023/10/09 14:16:42;;;;;;;11.43;3.63;;;16.10;83.10;;;;;;5011415;28;20045;-66
2023/10/09 14:19:12;;;;;;;14.95;3.95;;;16.00;83.20;;;;;;5009962;28;20068;-67
2023/10/09 14:21:40;;;;;;;13.25;3.72;;;16.00;83.20;;;;;;5010950;28;20049;-66
2023/10/09 14:24:15;;;;;;;13.68;4.57;;;16.10;83.40;;;;;;5012001;28;20072;-66
2023/10/09 14:26:41;;;;;;;19.00;4.43;;;16.10;83.10;;;;;;5008709;28;20137;-66
2023/10/09 14:29:07;;;;;;;15.32;4.47;;;16.10;83.00;;;;;;4992959;28;20050;-63
2023/10/09 14:31:38;;;;;;;10.80;3.72;;;16.10;83.00;;;;;;4994119;28;20049;-65
2023/10/09 14:34:05;;;;;;;21.65;4.78;;;16.10;83.10;;;;;;5012265;28;20564;-67
2023/10/09 14:36:33;;;;;;;16.05;4.53;;;16.10;83.00;;;;;;5010999;28;20060;-64
2023/10/09 14:39:04;;;;;;;13.68;3.95;;;16.20;83.10;;;;;;5009321;28;20045;-67
2023/10/09 14:41:32;;;;;;;9.07;3.92;;;16.20;83.00;;;;;;5009641;28;20083;-68
2023/10/09 14:43:59;;;;;;;13.77;3.97;;;16.20;83.00;;;;;;5012086;28;20089;-67
2023/10/09 14:46:28;;;;;;;13.57;3.95;;;16.20;82.80;;;;;;5011405;28;20061;-66
2023/10/09 14:48:54;;;;;;;14.00;3.88;;;16.20;82.90;;;;;;5012192;28;20128;-63
2023/10/09 14:51:26;;;;;;;12.63;4.00;;;16.20;82.90;;;;;;5011220;28;20073;-63
2023/10/09 14:53:58;;;;;;;14.00;3.70;;;16.20;83.00;;;;;;5009772;28;20525;-65
2023/10/09 14:56:30;;;;;;;8.05;2.95;;;16.20;83.10;;;;;;5010537;28;20049;-66
2023/10/09 14:59:00;;;;;;;13.40;3.58;;;16.20;83.20;;;;;;5011988;28;20068;-65
2023/10/09 15:01:28;;;;;;;16.38;3.55;;;16.20;83.20;;;;;;5012564;28;20057;-64